Time;durP1;ratioP1;P1;durP2;ratioP2;P2;SDS_P1;SDS_P2;PMS_P1;PMS_P2;Temp;Humidity;BMP_temperature;BMP_pressure;BME280_temperature;BME280_humidity;BME280_pressure;Samples;Min_cycle;Max_cycle;Signal;HPM_P1;HPM_P2
2021/03/07 00:00:33;;;;;;;17.27;11.23;;;;;;;-5.96;83.17;100564.34;4983902;28;20254;-87
2021/03/07 00:03:20;;;;;;;17.17;11.03;;;;;;;-5.99;82.94;100556.72;4977525;28;20239;-81
2021/03/07 00:06:08;;;;;;;16.90;11.27;;;;;;;-5.91;82.53;100575.34;4981754;28;20295;-86
2021/03/07 00:09:05;;;;;;;16.93;10.97;;;;;;;-5.98;82.39;100550.56;4997404;28;20255;-92
2021/03/07 00:11:55;;;;;;;17.17;11.33;;;;;;;-6.02;82.89;100568.16;4997446;28;20319;-92
2021/03/07 00:14:39;;;;;;;16.63;11.00;;;;;;;-5.90;83.07;100577.03;4997923;28;20226;-92
2021/03/07 00:17:32;;;;;;;16.37;10.97;;;;;;;-5.90;83.98;100571.81;5002422;28;20226;-88
2021/03/07 00:20:28;;;;;;;17.87;11.73;;;;;;;-5.85;83.95;100567.13;5007674;28;20222;-93
2021/03/07 00:23:25;;;;;;;16.83;11.33;;;;;;;-5.91;84.08;100557.06;5018654;28;20638;-88
2021/03/07 00:26:12;;;;;;;17.57;12.07;;;;;;;-6.05;84.28;100528.38;5018649;28;20234;-87
2021/03/07 00:29:04;;;;;;;19.07;12.07;;;;;;;-5.94;84.84;100536.41;5005132;28;20218;-87
2021/03/07 00:32:08;;;;;;;17.17;11.70;;;;;;;-5.84;84.92;100555.75;5023247;28;20218;-89
2021/03/07 00:34:49;;;;;;;18.17;11.57;;;;;;;-5.89;84.32;100544.78;5004651;28;20226;-89
2021/03/07 00:37:35;;;;;;;18.23;11.63;;;;;;;-5.91;84.30;100549.25;5005367;28;20291;-91
2021/03/07 00:40:19;;;;;;;17.27;11.60;;;;;;;-5.91;84.60;100536.19;5003871;28;20653;-90
2021/03/07 00:42:58;;;;;;;17.07;11.27;;;;;;;-5.99;84.59;100533.22;5008595;28;20229;-93
2021/03/07 00:45:44;;;;;;;19.67;11.87;;;;;;;-6.08;84.14;100534.63;5036890;28;20237;-91
2021/03/07 00:48:25;;;;;;;17.47;11.73;;;;;;;-6.25;84.70;100526.94;5003589;28;20593;-89
2021/03/07 00:51:08;;;;;;;20.30;12.23;;;;;;;-6.25;84.77;100537.38;5020779;28;20284;-89
2021/03/07 00:53:51;;;;;;;16.20;11.47;;;;;;;-6.26;84.93;100523.53;5001872;28;20523;-92
2021/03/07 00:56:40;;;;;;;18.17;11.47;;;;;;;-6.39;85.08;100496.47;5001430;28;20227;-85
2021/03/07 00:59:58;;;;;;;17.53;11.73;;;;;;;-6.27;85.78;100498.38;5007629;28;20232;-89
2021/03/07 01:02:52;;;;;;;17.50;12.00;;;;;;;-6.28;85.67;100498.47;5018722;28;20305;-86
2021/03/07 01:05:44;;;;;;;19.13;11.87;;;;;;;-6.26;85.62;100502.66;5021553;28;20236;-90
2021/03/07 01:08:35;;;;;;;20.10;11.13;;;;;;;-6.34;84.98;100483.16;5003478;28;20238;-88
2021/03/07 01:11:22;;;;;;;16.23;11.30;;;;;;;-6.43;85.40;100470.69;5021434;28;20226;-88
2021/03/07 01:14:16;;;;;;;20.57;12.00;;;;;;;-6.52;84.96;100453.81;4987267;28;20227;-89
2021/03/07 01:17:00;;;;;;;21.70;11.50;;;;;;;-6.25;84.88;100501.72;4977161;28;20315;-86
2021/03/07 01:19:59;;;;;;;19.50;12.40;;;;;;;-6.50;84.85;100456.34;4964466;28;20609;-89
2021/03/07 01:23:05;;;;;;;20.27;12.03;;;;;;;-6.45;85.23;100473.41;4986592;28;20219;-90
2021/03/07 01:25:57;;;;;;;18.23;11.93;;;;;;;-6.44;85.24;100480.25;4998840;28;20281;-91
2021/03/07 01:28:51;;;;;;;18.63;12.20;;;;;;;-6.40;85.05;100473.97;4996061;28;20219;-89
2021/03/07 01:31:33;;;;;;;17.80;12.10;;;;;;;-6.41;85.73;100474.03;4996502;28;20705;-91
2021/03/07 01:34:20;;;;;;;19.37;12.23;;;;;;;-6.55;85.44;100451.41;4996160;28;20224;-92
2021/03/07 01:37:06;;;;;;;18.80;11.93;;;;;;;-6.53;86.47;100459.97;4997517;28;20495;-93
2021/03/07 01:39:47;;;;;;;17.33;11.30;;;;;;;-6.50;86.76;100451.13;4978170;28;20235;-90
2021/03/07 01:42:32;;;;;;;19.47;12.07;;;;;;;-6.65;86.46;100444.22;4977690;28;20243;-94
2021/03/07 01:45:34;;;;;;;18.07;11.57;;;;;;;-6.55;86.82;100467.06;4977791;28;20318;-93
2021/03/07 01:48:17;;;;;;;18.70;11.37;;;;;;;-6.64;86.51;100451.97;4976240;28;20232;-86
2021/03/07 01:51:05;;;;;;;19.40;11.13;;;;;;;-6.62;87.04;100450.09;4977868;28;20278;-88
2021/03/07 01:53:48;;;;;;;17.30;11.60;;;;;;;-6.77;87.19;100415.38;4996320;28;20227;-90
2021/03/07 01:56:34;;;;;;;17.67;12.17;;;;;;;-6.68;86.67;100435.66;4980412;28;20299;-91
2021/03/07 01:59:23;;;;;;;19.20;12.27;;;;;;;-6.57;86.94;100448.03;4981917;28;20230;-92
2021/03/07 02:02:13;;;;;;;18.27;12.17;;;;;;;-6.68;86.96;100422.63;4996611;28;20235;-88
2021/03/07 02:05:01;;;;;;;16.90;11.53;;;;;;;-6.61;86.92;100446.56;4976264;28;20246;-90
2021/03/07 02:07:48;;;;;;;16.67;11.43;;;;;;;-6.69;86.90;100443.56;4963523;28;20235;-95
2021/03/07 02:10:44;;;;;;;18.67;11.83;;;;;;;-6.79;87.16;100426.78;4996854;28;20219;-93
2021/03/07 02:13:42;;;;;;;17.77;11.83;;;;;;;-6.72;86.87;100430.72;4982681;28;20231;-93
2021/03/07 02:16:39;;;;;;;18.73;11.77;;;;;;;-6.80;86.95;100414.69;5028249;28;20302;-92
2021/03/07 02:19:36;;;;;;;20.07;11.93;;;;;;;-6.89;87.18;100408.25;5035990;28;20233;-93
2021/03/07 02:22:40;;;;;;;17.63;11.77;;;;;;;-6.93;87.69;100400.72;5021308;28;20309;-87
2021/03/07 02:25:41;;;;;;;19.47;11.57;;;;;;;-6.98;86.36;100394.94;5001979;28;20251;-94
2021/03/07 02:28:41;;;;;;;18.23;11.03;;;;;;;-7.02;86.18;100415.13;5018712;28;20233;-92
2021/03/07 02:31:29;;;;;;;17.87;11.90;;;;;;;-6.99;87.24;100427.13;5035809;28;20226;-93
2021/03/07 02:34:38;;;;;;;18.13;11.43;;;;;;;-6.95;87.32;100428.63;5021275;28;20241;-89
2021/03/07 02:37:29;;;;;;;17.03;11.03;;;;;;;-7.03;87.57;100417.81;5021914;28;20218;-90
2021/03/07 02:40:19;;;;;;;18.23;11.43;;;;;;;-7.09;87.56;100400.75;5019741;28;20253;-91
2021/03/07 02:43:20;;;;;;;19.93;11.67;;;;;;;-7.30;87.75;100381.19;5022476;28;20328;-93
2021/03/07 02:46:06;;;;;;;15.87;11.27;;;;;;;-7.10;88.06;100416.50;5035313;28;20280;-83
2021/03/07 02:48:54;;;;;;;20.00;12.57;;;;;;;-7.14;88.20;100428.88;5020054;28;20654;-89
2021/03/07 02:51:42;;;;;;;22.50;12.50;;;;;;;-7.14;88.87;100408.03;5004056;28;20570;-93
2021/03/07 02:54:31;;;;;;;21.87;12.73;;;;;;;-7.29;88.90;100388.09;5003111;28;20244;-89
2021/03/07 02:57:23;;;;;;;19.77;11.67;;;;;;;-7.27;88.98;100381.84;5020928;28;20229;-93
2021/03/07 03:00:11;;;;;;;19.60;11.90;;;;;;;-7.21;88.99;100388.47;5020544;28;20311;-88
2021/03/07 03:02:48;;;;;;;18.77;11.97;;;;;;;-7.12;89.58;100399.19;5019523;28;20624;-92
2021/03/07 03:05:41;;;;;;;19.07;11.20;;;;;;;-7.04;89.48;100403.09;5035291;28;20237;-89
2021/03/07 03:08:35;;;;;;;18.10;10.73;;;;;;;-7.11;89.41;100402.63;5021557;28;20532;-90
2021/03/07 03:11:39;;;;;;;16.77;10.87;;;;;;;-7.15;89.47;100390.72;4988382;28;20653;-91
2021/03/07 03:14:30;;;;;;;17.47;11.13;;;;;;;-7.10;89.49;100393.91;5024166;28;20225;-87
2021/03/07 03:17:25;;;;;;;17.43;10.53;;;;;;;-7.33;88.68;100353.59;5010668;28;20222;-88
2021/03/07 03:20:20;;;;;;;16.00;10.23;;;;;;;-7.18;88.27;100380.47;5023711;28;20222;-90
2021/03/07 03:23:13;;;;;;;17.17;11.17;;;;;;;-7.14;88.31;100387.19;5025052;28;20308;-93
2021/03/07 03:26:12;;;;;;;18.30;12.43;;;;;;;-7.13;87.74;100379.28;5039487;28;20529;-89
2021/03/07 03:29:13;;;;;;;14.43;10.77;;;;;;;-7.05;87.86;100389.25;5024592;28;20625;-88
2021/03/07 03:32:10;;;;;;;16.47;10.30;;;;;;;-7.16;86.98;100387.28;5039151;28;20304;-89
2021/03/07 03:35:08;;;;;;;15.27;10.10;;;;;;;-7.28;87.86;100364.53;5035498;28;20273;-87
2021/03/07 03:38:02;;;;;;;16.40;9.83;;;;;;;-7.19;87.97;100378.81;5039022;28;20588;-87
2021/03/07 03:40:59;;;;;;;16.00;9.40;;;;;;;-7.44;87.64;100345.53;5023046;28;20233;-85
2021/03/07 03:44:14;;;;;;;16.83;10.17;;;;;;;-7.23;87.72;100382.53;5026385;28;20213;-92
2021/03/07 03:47:22;;;;;;;17.27;10.37;;;;;;;-7.31;87.73;100367.31;5005105;28;20235;-93
2021/03/07 03:50:20;;;;;;;15.60;11.03;;;;;;;-7.29;88.32;100377.66;5025085;28;20652;-86
2021/03/07 03:53:20;;;;;;;16.03;10.33;;;;;;;-7.28;88.20;100359.34;5038828;28;20218;-88
2021/03/07 03:56:23;;;;;;;16.70;10.27;;;;;;;-7.34;88.51;100343.25;5037307;28;20222;-90
2021/03/07 03:59:17;;;;;;;15.60;9.53;;;;;;;-7.12;88.05;100374.91;5038677;28;20642;-86
2021/03/07 04:02:10;;;;;;;13.90;9.60;;;;;;;-7.20;88.29;100353.69;5018276;28;20281;-90
2021/03/07 04:05:05;;;;;;;15.13;10.90;;;;;;;-7.35;87.57;100331.16;5022465;28;20226;-87
2021/03/07 04:07:59;;;;;;;15.47;12.37;;;;;;;-7.52;87.71;100320.88;5023987;28;20226;-89
2021/03/07 04:10:47;;;;;;;14.33;11.43;;;;;;;-7.48;87.47;100320.63;5021834;28;20227;-88
2021/03/07 04:13:28;;;;;;;15.70;11.03;;;;;;;-7.24;87.27;100360.00;5037569;28;20284;-92
2021/03/07 04:16:26;;;;;;;15.00;10.03;;;;;;;-7.30;87.37;100360.38;5037050;28;20284;-88
2021/03/07 04:19:19;;;;;;;11.77;9.30;;;;;;;-7.47;87.79;100332.72;5036595;28;20218;-83
2021/03/07 04:22:16;;;;;;;13.57;9.17;;;;;;;-7.20;87.70;100383.19;5020880;28;20237;-83
2021/03/07 04:25:15;;;;;;;14.97;9.43;;;;;;;-7.26;88.05;100374.88;5020012;28;20224;-88
2021/03/07 04:28:06;;;;;;;12.73;8.77;;;;;;;-7.65;87.88;100328.56;5008651;28;20312;-87
2021/03/07 04:30:58;;;;;;;11.63;8.60;;;;;;;-7.55;88.05;100347.91;5037573;28;20225;-91
2021/03/07 04:33:49;;;;;;;11.50;8.43;;;;;;;-7.79;88.05;100328.53;5022655;28;20241;-89
2021/03/07 04:36:46;;;;;;;14.33;8.60;;;;;;;-7.68;88.18;100329.56;5036553;28;20253;-89
2021/03/07 04:39:37;;;;;;;14.90;10.80;;;;;;;-7.40;88.38;100369.63;5036066;28;20232;-88
2021/03/07 04:42:29;;;;;;;14.80;11.27;;;;;;;-7.53;88.39;100366.91;5021943;28;20321;-90
2021/03/07 04:45:22;;;;;;;15.17;10.77;;;;;;;-7.50;88.63;100347.66;5036669;28;20218;-90
2021/03/07 04:48:06;;;;;;;12.70;8.47;;;;;;;-7.57;88.54;100342.81;5021731;28;20263;-86
2021/03/07 04:50:57;;;;;;;12.13;9.40;;;;;;;-7.59;88.55;100339.44;5036223;28;20218;-86
2021/03/07 04:53:46;;;;;;;12.63;8.10;;;;;;;-7.44;89.15;100355.97;5021129;28;20234;-87
2021/03/07 04:56:35;;;;;;;13.50;9.00;;;;;;;-7.41;88.72;100365.34;5020983;28;20230;-90
2021/03/07 04:59:20;;;;;;;11.10;8.67;;;;;;;-7.54;88.71;100336.59;5021149;28;20304;-92
2021/03/07 05:02:14;;;;;;;11.67;7.93;;;;;;;-7.37;88.49;100356.44;5036024;28;20228;-87
2021/03/07 05:05:03;;;;;;;12.43;8.00;;;;;;;-7.39;88.63;100353.09;5018910;28;20222;-86
2021/03/07 05:07:55;;;;;;;13.10;8.97;;;;;;;-7.60;88.51;100316.09;5021848;28;20222;-85
2021/03/07 05:10:45;;;;;;;12.87;8.37;;;;;;;-7.30;88.18;100358.59;5021915;28;20226;-85
2021/03/07 05:13:46;;;;;;;11.30;7.53;;;;;;;-7.34;88.08;100345.84;5036831;28;20222;-88
2021/03/07 05:16:37;;;;;;;12.53;7.60;;;;;;;-7.41;88.05;100334.09;5035619;28;20226;-87
2021/03/07 05:19:27;;;;;;;11.70;7.90;;;;;;;-7.42;88.23;100325.47;5021032;28;20230;-87
2021/03/07 05:22:09;;;;;;;17.10;10.90;;;;;;;-7.10;88.25;100354.84;5035798;28;20218;-84
2021/03/07 05:25:02;;;;;;;13.07;9.03;;;;;;;-7.18;87.85;100331.00;5021539;28;20222;-87
2021/03/07 05:27:56;;;;;;;13.43;8.97;;;;;;;-7.21;86.92;100331.19;5020693;28;20232;-88
2021/03/07 05:30:44;;;;;;;12.33;7.87;;;;;;;-7.22;86.78;100325.13;5035790;28;20308;-89
2021/03/07 05:33:32;;;;;;;13.87;8.67;;;;;;;-7.02;86.90;100350.00;5002575;28;20650;-84
2021/03/07 05:36:19;;;;;;;11.23;7.50;;;;;;;-7.08;87.05;100333.88;5027731;28;20671;-86
2021/03/07 05:39:16;;;;;;;11.57;7.90;;;;;;;-7.01;86.72;100343.88;5016054;28;20219;-88
2021/03/07 05:42:08;;;;;;;11.27;8.07;;;;;;;-6.90;86.34;100349.25;5016522;28;20238;-84
2021/03/07 05:45:03;;;;;;;11.37;7.43;;;;;;;-7.03;86.45;100324.03;5015368;28;20524;-90
2021/03/07 05:47:58;;;;;;;10.40;7.83;;;;;;;-6.85;86.18;100336.78;5029874;28;20214;-89
2021/03/07 05:50:50;;;;;;;13.50;7.97;;;;;;;-6.68;86.05;100343.59;5010227;28;20221;-93
2021/03/07 05:53:36;;;;;;;10.83;7.60;;;;;;;-6.76;85.51;100311.94;5020606;28;20222;-93
2021/03/07 05:56:25;;;;;;;9.80;7.20;;;;;;;-6.53;85.49;100331.41;5020366;28;20226;-91
2021/03/07 05:59:10;;;;;;;10.30;7.33;;;;;;;-6.56;84.72;100303.75;5020981;28;20321;-91
2021/03/07 06:02:01;;;;;;;12.33;6.23;;;;;;;-6.22;84.50;100345.97;5035959;28;20222;-89
2021/03/07 06:04:53;;;;;;;9.97;6.60;;;;;;;-6.09;83.99;100352.94;5020414;28;20222;-89
2021/03/07 06:07:47;;;;;;;9.73;6.80;;;;;;;-6.07;83.77;100325.00;5003070;28;20697;-94
2021/03/07 06:10:40;;;;;;;9.53;6.77;;;;;;;-5.73;83.26;100338.41;5016072;28;20639;-94
2021/03/07 06:13:42;;;;;;;9.60;6.07;;;;;;;-5.67;83.54;100324.97;5027840;28;20222;-91
2021/03/07 06:16:37;;;;;;;10.33;6.67;;;;;;;-5.53;83.73;100328.38;5023430;28;20230;-91
2021/03/07 06:19:29;;;;;;;11.77;7.10;;;;;;;-5.19;82.37;100341.81;4996460;28;20397;-95
2021/03/07 06:22:23;;;;;;;10.37;6.60;;;;;;;-5.17;82.35;100321.63;4996492;28;20251;-93
2021/03/07 06:25:17;;;;;;;8.10;6.17;;;;;;;-4.83;81.40;100341.94;4996919;28;20498;-91
2021/03/07 06:28:28;;;;;;;9.13;5.93;;;;;;;-4.72;79.71;100333.38;4995132;28;20511;-90
2021/03/07 06:31:39;;;;;;;9.10;5.97;;;;;;;-4.71;79.70;100301.06;4982329;28;20223;-92
2021/03/07 06:34:17;;;;;;;9.57;6.17;;;;;;;-4.47;78.80;100325.47;4975835;28;20268;-95
2021/03/07 06:37:05;;;;;;;7.60;5.57;;;;;;;-4.31;79.06;100322.63;4993231;28;20234;-92
2021/03/07 06:39:44;;;;;;;8.60;6.17;;;;;;;-4.05;78.38;100353.84;4980185;28;20714;-90
2021/03/07 06:42:28;;;;;;;7.73;5.83;;;;;;;-4.00;77.94;100322.94;4996094;28;20310;-92
2021/03/07 06:45:15;;;;;;;8.60;6.20;;;;;;;-3.73;76.45;100334.97;4999727;28;20246;-93
2021/03/07 06:48:01;;;;;;;9.20;6.43;;;;;;;-3.71;75.71;100315.59;5000083;28;20211;-94
2021/03/07 06:50:58;;;;;;;8.43;6.20;;;;;;;-3.47;75.29;100333.06;4998907;28;20239;-90
2021/03/07 06:53:42;;;;;;;7.23;5.67;;;;;;;-3.33;73.58;100344.19;5000410;28;20226;-90
2021/03/07 06:56:49;;;;;;;9.13;6.23;;;;;;;-3.34;74.26;100333.81;4999874;28;20230;-90
2021/03/07 06:59:44;;;;;;;9.10;6.27;;;;;;;-3.21;73.41;100317.06;4999325;28;20265;-93
2021/03/07 07:02:38;;;;;;;11.67;6.73;;;;;;;-3.11;73.24;100319.84;4998977;28;20227;-89
2021/03/07 07:05:45;;;;;;;8.23;5.67;;;;;;;-2.78;72.66;100340.88;5000396;28;20581;-94
2021/03/07 07:08:47;;;;;;;9.10;5.80;;;;;;;-2.58;72.53;100346.38;4998895;28;20709;-92
2021/03/07 07:11:49;;;;;;;8.70;6.27;;;;;;;-2.58;72.14;100315.72;4999736;28;20235;-92
2021/03/07 07:14:50;;;;;;;8.00;5.33;;;;;;;-2.40;71.14;100314.28;4999822;28;20251;-91
2021/03/07 07:17:35;;;;;;;8.07;5.87;;;;;;;-2.17;71.38;100336.09;5013681;28;20236;-94
2021/03/07 07:20:25;;;;;;;8.60;6.13;;;;;;;-2.14;71.73;100316.63;4999237;28;20583;-89
2021/03/07 07:23:28;;;;;;;8.20;5.93;;;;;;;-2.02;70.93;100313.88;5014977;28;20706;-94
2021/03/07 07:26:16;;;;;;;7.03;5.37;;;;;;;-1.78;69.96;100324.19;4999536;28;20227;-93
2021/03/07 07:29:01;;;;;;;7.33;5.70;;;;;;;-1.67;69.22;100311.00;5008698;28;20239;-93
2021/03/07 07:31:53;;;;;;;7.23;5.07;;;;;;;-1.49;69.08;100316.53;5009659;28;20270;-92
2021/03/07 07:34:54;;;;;;;9.27;6.30;;;;;;;-1.47;68.59;100294.44;4993742;28;20231;-92
2021/03/07 07:37:54;;;;;;;10.57;6.83;;;;;;;-1.11;68.62;100318.63;5005838;28;20283;-87
2021/03/07 07:40:42;;;;;;;10.37;7.50;;;;;;;-0.94;67.26;100318.91;4993923;28;20235;-91
2021/03/07 07:43:54;;;;;;;9.77;7.47;;;;;;;-0.81;66.57;100320.47;4984804;28;20222;-90
2021/03/07 07:47:08;;;;;;;10.83;7.93;;;;;;;-0.65;66.02;100320.81;4986866;28;20651;-91
2021/03/07 07:50:01;;;;;;;10.57;7.93;;;;;;;-0.62;65.46;100294.25;4983534;28;20223;-92
2021/03/07 07:52:43;;;;;;;12.23;8.33;;;;;;;-0.43;64.65;100285.59;5003271;28;20269;-94
2021/03/07 07:55:40;;;;;;;13.80;8.00;;;;;;;-0.30;63.29;100299.34;5017549;28;20646;-90
2021/03/07 07:58:36;;;;;;;9.93;7.17;;;;;;;-0.17;62.59;100305.22;5012302;28;20219;-91
2021/03/07 08:01:32;;;;;;;15.73;14.13;;;;;;;0.03;63.11;100314.00;4997505;28;20270;-89
2021/03/07 08:04:46;;;;;;;12.90;10.50;;;;;;;0.06;61.80;100275.03;5016283;28;20245;-84
2021/03/07 08:08:03;;;;;;;9.37;7.47;;;;;;;0.18;60.95;100289.75;5031797;28;20242;-80
2021/03/07 08:11:32;;;;;;;7.90;6.47;;;;;;;0.15;61.53;100261.03;5038152;23;20212;-81
2021/03/07 08:14:51;;;;;;;9.43;6.07;;;;;;;0.26;59.54;100289.91;5077371;28;20227;-82
2021/03/07 08:18:26;;;;;;;7.40;6.03;;;;;;;0.38;60.08;100283.50;5245057;23;20210;-79
2021/03/07 08:21:31;;;;;;;8.80;6.10;;;;;;;0.29;59.13;100281.72;5078044;28;20193;-83
2021/03/07 08:24:34;;;;;;;8.63;6.30;;;;;;;0.30;59.76;100245.66;5078869;28;20201;-80
2021/03/07 08:28:15;;;;;;;8.93;6.50;;;;;;;0.60;59.44;100276.31;5018381;28;20207;-80
2021/03/07 08:31:49;;;;;;;8.53;6.20;;;;;;;0.46;59.37;100214.28;5085018;23;20229;-80
2021/03/07 08:35:41;;;;;;;7.57;6.00;;;;;;;0.94;59.07;100264.28;5060603;23;20239;-80
2021/03/07 08:43:33;;;;;;;7.43;5.67;;;;;;;0.95;56.68;100225.56;4972668;28;20243;-80
2021/03/07 08:47:11;;;;;;;7.33;5.33;;;;;;;1.20;57.20;100249.50;4995487;28;20481;-79
2021/03/07 08:50:40;;;;;;;7.10;5.57;;;;;;;1.17;56.42;100226.03;4980034;28;20264;-79
2021/03/07 08:54:02;;;;;;;7.00;5.43;;;;;;;1.42;55.24;100219.25;5011169;23;20202;-79
2021/03/07 08:57:55;;;;;;;6.53;5.00;;;;;;;1.58;55.10;100232.66;5016530;28;20187;-79
2021/03/07 09:02:07;;;;;;;8.93;5.10;;;;;;;1.61;54.54;100219.16;5032459;28;20234;-80
2021/03/07 09:05:37;;;;;;;6.40;5.13;;;;;;;1.51;55.21;100183.19;5104638;23;20269;-80
2021/03/07 09:09:02;;;;;;;5.73;5.07;;;;;;;1.69;54.67;100206.03;5025676;28;20218;-82
2021/03/07 09:12:40;;;;;;;5.87;4.60;;;;;;;2.03;55.59;100205.38;5069544;28;20253;-80
2021/03/07 09:16:39;;;;;;;6.07;4.57;;;;;;;2.01;52.40;100181.72;5055634;28;20253;-79
2021/03/07 09:19:50;;;;;;;6.23;5.17;;;;;;;2.35;52.90;100191.59;5057253;28;20210;-80
2021/03/07 09:22:51;;;;;;;7.67;5.00;;;;;;;2.45;52.92;100187.91;5050261;28;20206;-81
2021/03/07 09:26:08;;;;;;;6.33;5.17;;;;;;;2.58;51.62;100192.78;5052606;28;20230;-82
2021/03/07 09:29:14;;;;;;;6.10;4.90;;;;;;;2.52;51.87;100167.75;5033432;28;20498;-83
2021/03/07 09:32:33;;;;;;;6.03;4.30;;;;;;;2.89;51.15;100180.72;5049737;28;20215;-80
2021/03/07 09:35:51;;;;;;;5.90;5.10;;;;;;;2.93;51.10;100147.69;5035848;28;20211;-80
2021/03/07 09:39:13;;;;;;;5.97;5.10;;;;;;;3.16;50.69;100165.66;5074944;23;20229;-82
2021/03/07 09:42:32;;;;;;;5.63;4.83;;;;;;;3.23;49.56;100167.50;5059249;28;20252;-81
2021/03/07 09:45:37;;;;;;;5.80;4.67;;;;;;;3.16;49.72;100147.94;5062517;28;20237;-80
2021/03/07 09:48:43;;;;;;;5.07;4.03;;;;;;;3.08;48.27;100151.38;5028481;28;20319;-82
2021/03/07 09:51:53;;;;;;;6.33;4.60;;;;;;;3.20;47.76;100153.75;5063766;28;20210;-81
2021/03/07 09:55:24;;;;;;;6.03;4.50;;;;;;;3.16;47.68;100120.63;5047923;23;20217;-80
2021/03/07 09:58:13;;;;;;;5.57;4.37;;;;;;;3.18;47.20;100108.88;5054497;28;20233;-79
2021/03/07 10:01:18;;;;;;;4.80;4.30;;;;;;;3.41;48.20;100125.00;5054284;28;20202;-82
2021/03/07 10:04:58;;;;;;;4.63;4.13;;;;;;;3.64;46.79;100126.03;5020840;28;20223;-80
2021/03/07 10:08:04;;;;;;;5.10;4.60;;;;;;;3.81;47.82;100135.69;5034917;28;20219;-81
2021/03/07 10:11:22;;;;;;;5.60;4.73;;;;;;;4.08;45.42;100131.06;5034549;28;20286;-80
2021/03/07 10:14:22;;;;;;;5.67;4.50;;;;;;;4.03;46.51;100131.56;5034275;28;20249;-83
2021/03/07 10:18:23;;;;;;;5.50;3.97;;;;;;;3.94;45.55;100124.59;4988250;28;20224;-82
2021/03/07 10:21:45;;;;;;;4.93;4.00;;;;;;;3.74;45.04;100091.44;5062491;23;20259;-83
2021/03/07 10:25:44;;;;;;;5.40;4.20;;;;;;;4.23;45.44;100108.19;5076489;28;20185;-81
2021/03/07 10:29:39;;;;;;;6.27;4.30;;;;;;;4.40;44.92;100100.03;5030560;28;20290;-80
2021/03/07 10:33:45;;;;;;;4.80;4.20;;;;;;;4.64;44.29;100091.19;5035710;28;20230;-80
2021/03/07 10:36:54;;;;;;;5.87;3.93;;;;;;;4.63;42.36;100094.00;5039296;28;20232;-80
2021/03/07 10:39:54;;;;;;;5.53;3.77;;;;;;;4.73;41.82;100076.91;5048147;28;20185;-80
2021/03/07 10:42:56;;;;;;;4.67;4.00;;;;;;;4.83;41.98;100069.56;5039848;28;20300;-80
2021/03/07 10:46:23;;;;;;;5.37;3.50;;;;;;;4.93;42.18;100036.69;5043977;28;20218;-80
2021/03/07 10:49:35;;;;;;;5.20;3.70;;;;;;;5.28;41.36;100066.19;5068839;23;20235;31
2021/03/07 10:52:29;;;;;;;4.70;3.83;;;;;;;5.54;42.34;100063.22;4960678;28;20235;-81
2021/03/07 10:55:34;;;;;;;5.47;3.90;;;;;;;5.59;41.44;100036.09;4938208;28;20236;-81
2021/03/07 10:58:37;;;;;;;4.90;3.80;;;;;;;5.61;39.88;100034.09;4961677;29;20205;-81
2021/03/07 11:01:39;;;;;;;4.83;3.77;;;;;;;5.71;40.91;100040.81;4962904;28;20205;-79
2021/03/07 11:05:03;;;;;;;7.67;4.80;;;;;;;6.09;40.76;100044.34;4958855;29;20226;-79
2021/03/07 11:08:05;;;;;;;5.63;4.60;;;;;;;6.22;38.95;100016.28;4938339;29;20246;-81
2021/03/07 11:10:49;;;;;;;4.50;3.83;;;;;;;6.16;40.60;99994.72;4950472;29;20234;-82
2021/03/07 11:13:33;;;;;;;4.47;4.03;;;;;;;6.07;39.51;100022.41;4934092;29;20229;-81
2021/03/07 11:16:24;;;;;;;5.00;4.07;;;;;;;5.98;39.33;100017.34;4942946;28;20241;-81
2021/03/07 11:19:31;;;;;;;4.70;3.90;;;;;;;5.81;38.65;99999.88;4928820;29;20241;-81
2021/03/07 11:22:24;;;;;;;4.17;3.77;;;;;;;6.01;38.50;100003.69;4949808;28;20313;-81
2021/03/07 11:25:20;;;;;;;5.90;4.43;;;;;;;6.33;39.07;99983.91;4946129;29;20233;-81
2021/03/07 11:28:05;;;;;;;5.33;4.47;;;;;;;6.57;38.20;99983.63;4933469;29;20309;-81
2021/03/07 11:30:48;;;;;;;5.17;4.10;;;;;;;6.63;37.39;99981.03;4920333;29;20237;-81
2021/03/07 11:33:38;;;;;;;5.20;4.60;;;;;;;6.35;39.04;99974.72;4921519;29;20230;-81
2021/03/07 11:36:11;;;;;;;5.90;4.23;;;;;;;6.35;39.26;99942.78;4953537;28;20238;-81
2021/03/07 11:38:44;;;;;;;4.83;4.33;;;;;;;6.67;37.75;99956.72;4942950;29;20234;-81
2021/03/07 11:41:58;;;;;;;6.07;4.70;;;;;;;6.92;37.36;99964.19;4949900;29;20234;-79
2021/03/07 11:45:24;;;;;;;5.93;4.10;;;;;;;7.08;37.22;99958.63;4957222;29;20222;-81
2021/03/07 11:49:14;;;;;;;5.53;4.50;;;;;;;6.84;36.93;99948.31;4940362;29;20206;-78
2021/03/07 11:52:39;;;;;;;6.63;4.30;;;;;;;7.13;38.18;99933.25;5042471;23;20272;-80
2021/03/07 11:55:39;;;;;;;4.93;4.43;;;;;;;7.00;37.85;99917.94;5060688;28;20205;-80
2021/03/07 11:58:32;;;;;;;5.63;4.50;;;;;;;7.25;37.42;99921.88;5041693;28;20250;-80
2021/03/07 12:02:02;;;;;;;5.50;4.57;;;;;;;7.50;39.19;99914.31;5054698;28;20237;-80
2021/03/07 12:05:50;;;;;;;6.43;4.80;;;;;;;7.49;38.64;99908.16;5055138;28;20202;-79
2021/03/07 12:13:24;;;;;;;5.80;5.17;;;;;;;7.77;36.63;99884.16;4975600;28;20213;-80
2021/03/07 12:17:20;;;;;;;5.40;4.73;;;;;;;7.75;36.86;99885.34;4978346;28;20233;-80
2021/03/07 12:20:31;;;;;;;6.07;4.60;;;;;;;7.72;35.50;99854.59;4978662;28;20189;-81
2021/03/07 12:27:21;;;;;;;7.00;5.00;;;;;;;8.19;37.04;99844.97;4981763;28;20289;-80
2021/03/07 12:30:45;;;;;;;5.63;4.80;;;;;;;8.29;36.06;99859.63;5046737;28;20206;-81
2021/03/07 12:34:09;;;;;;;5.63;5.07;;;;;;;8.23;35.74;99843.56;5001491;28;20231;-80
2021/03/07 12:37:01;;;;;;;5.17;4.43;;;;;;;8.13;35.56;99843.91;5046824;28;20280;-83
2021/03/07 12:40:33;;;;;;;5.27;4.77;;;;;;;8.30;37.19;99836.44;5047073;28;20280;-82
2021/03/07 12:44:44;;;;;;;5.20;4.70;;;;;;;8.27;36.20;99824.28;5047100;28;20282;-83
2021/03/07 12:48:03;;;;;;;6.37;5.70;;;;;;;8.25;36.12;99815.66;4992625;28;20207;-83
2021/03/07 12:51:30;;;;;;;5.57;4.80;;;;;;;8.58;35.60;99810.44;5037936;28;20688;-80
2021/03/07 12:54:28;;;;;;;5.87;5.27;;;;;;;8.33;35.80;99786.13;5021211;28;20228;-83
2021/03/07 12:57:38;;;;;;;5.20;4.60;;;;;;;8.60;35.38;99783.50;5046428;28;20231;-80
2021/03/07 13:00:38;;;;;;;5.77;5.07;;;;;;;8.82;35.40;99785.81;5029200;28;20219;-82
2021/03/07 13:03:31;;;;;;;5.90;5.20;;;;;;;8.89;34.57;99785.00;5023931;28;20658;-81
2021/03/07 13:06:15;;;;;;;6.17;5.17;;;;;;;8.50;33.93;99769.72;5030396;28;20290;-82
2021/03/07 13:09:01;;;;;;;6.23;5.63;;;;;;;8.30;35.44;99753.69;5032404;28;20249;-80
2021/03/07 13:11:55;;;;;;;6.10;5.50;;;;;;;8.25;36.64;99756.09;5064709;23;20304;-81
2021/03/07 13:14:28;;;;;;;5.87;5.13;;;;;;;8.52;36.64;99746.31;5034006;28;20229;-81
2021/03/07 13:17:06;;;;;;;5.67;5.07;;;;;;;8.90;36.60;99762.59;5039510;28;20229;-81
2021/03/07 13:19:47;;;;;;;5.77;5.20;;;;;;;8.96;36.10;99753.75;5047178;28;20291;-81
2021/03/07 13:22:35;;;;;;;6.07;5.10;;;;;;;8.90;34.87;99752.72;5050884;28;20280;-82
2021/03/07 13:25:30;;;;;;;5.23;4.73;;;;;;;8.98;34.11;99738.34;5054585;28;20232;-82
2021/03/07 13:28:22;;;;;;;7.30;5.53;;;;;;;9.01;34.25;99737.91;5046841;28;20218;-83
2021/03/07 13:31:13;;;;;;;6.93;5.77;;;;;;;8.99;34.33;99730.13;5049965;28;20215;-83
2021/03/07 13:34:07;;;;;;;6.20;5.60;;;;;;;9.11;34.76;99712.41;5048746;28;20228;-83
2021/03/07 13:36:43;;;;;;;5.57;5.07;;;;;;;9.30;33.99;99726.78;5065674;28;20221;-82
2021/03/07 13:39:34;;;;;;;6.10;5.27;;;;;;;9.34;33.69;99700.44;5046256;28;20237;-83
2021/03/07 13:42:14;;;;;;;5.73;5.10;;;;;;;9.31;33.74;99696.34;5031149;28;20206;-82
2021/03/07 13:45:04;;;;;;;6.37;5.73;;;;;;;9.11;33.98;99695.53;5050701;28;20197;-81
2021/03/07 13:47:59;;;;;;;6.37;5.30;;;;;;;9.31;33.64;99691.00;5067143;28;20233;-83
2021/03/07 13:50:40;;;;;;;5.57;4.97;;;;;;;9.53;33.69;99708.41;5049780;28;20229;-82
2021/03/07 13:53:49;;;;;;;7.37;5.20;;;;;;;9.72;33.19;99698.66;5065738;28;20229;-83
2021/03/07 13:57:00;;;;;;;5.47;4.97;;;;;;;9.62;33.87;99695.59;5044940;28;20285;-83
2021/03/07 13:59:45;;;;;;;5.77;5.17;;;;;;;9.44;32.16;99666.06;5046637;28;20234;-83
2021/03/07 14:02:27;;;;;;;7.07;5.57;;;;;;;9.32;32.70;99651.72;5045361;28;20230;-81
2021/03/07 14:05:20;;;;;;;5.30;4.80;;;;;;;9.71;33.42;99686.31;5052415;28;20232;-82
2021/03/07 14:08:34;;;;;;;6.63;5.57;;;;;;;9.27;31.88;99682.56;5056285;23;20290;-81